Date,TemperatureHighF,TemperatureAvgF,TemperatureLowF,DewpointHighF,DewpointAvgF,DewpointLowF,HumidityHigh,HumidityAvg,HumidityLow,PressureMaxIn,PressureMinIn,WindSpeedMaxMPH,WindSpeedAvgMPH,GustSpeedMaxMPH,PrecipitationSumIn
2013-2-1,27,18,11,20,7,0,88,62,47,30.40,29.91,14,4,14,0.00
2013-2-2,25,18,11,20,9,1,86,69,61,30.40,30.05,10,3,10,0.00
2013-2-3,30,26,22,26,21,10,87,81,58,30.07,29.92,14,2,14,0.00
2013-2-4,34,27,17,25,17,9,72,65,59,30.15,30.01,15,3,15,0.00
2013-2-5,41,36,34,34,30,25,83,76,70,30.08,29.97,9,1,9,20.73
2013-2-6,38,34,27,31,26,21,85,75,58,30.43,30.03,9,2,9,62.16
2013-2-7,33,29,26,25,22,20,84,76,69,30.48,30.27,10,4,10,62.16
2013-2-8,35,31,27,32,27,19,94,85,71,30.27,29.93,19,3,19,62.20
2013-2-9,33,27,23,20,16,13,78,63,46,30.47,30.04,19,6,19,62.16
2013-2-10,38,31,24,23,16,11,62,54,47,30.51,30.29,12,4,13,49.27
2013-2-11,58,44,31,48,34,18,95,73,27,30.29,29.93,15,4,15,51.86
2013-2-12,52,44,37,26,23,19,57,45,30,30.15,30.01,12,2,13,56.98
2013-2-13,39,32,29,29,26,19,96,79,46,30.09,29.80,5,1,5,33.67
2013-2-14,43,34,28,30,27,24,96,75,56,30.12,29.91,9,2,9,38.94
2013-2-15,50,39,31,34,30,25,94,71,49,30.16,30.05,11,2,11,54.49
2013-2-16,31,28,21,30,23,12,93,82,66,30.11,29.97,10,2,10,62.16
2013-2-17,22,19,16,13,8,4,78,64,51,30.28,29.96,17,5,17,25.90
2013-2-18,38,26,15,21,12,5,67,55,40,30.42,30.22,14,4,14,20.73
2013-2-19,43,36,31,37,26,18,88,69,50,30.22,29.86,14,5,14,62.26
2013-2-20,32,26,18,20,13,10,70,59,46,30.23,29.97,14,4,14,62.16
2013-2-21,31,22,16,16,12,8,72,65,52,30.40,30.18,13,4,13,59.57
2013-2-22,27,25,22,23,18,14,88,75,66,30.44,30.27,11,2,11,51.80
2013-2-23,46,39,32,41,35,29,91,87,81,30.17,29.98,5,1,5,28.51
2013-2-24,44,35,25,36,27,16,96,76,42,30.23,29.96,11,3,11,54.39
2013-2-25,39,30,24,23,19,16,77,65,49,30.32,30.22,10,2,10,49.21
2013-2-26,37,33,30,36,30,22,96,90,70,30.24,29.79,12,2,12,31.98
2013-2-27,43,37,33,39,32,29,97,83,65,29.87,29.73,9,2,9,38.88
2013-2-28,38,35,32,32,26,23,79,70,60,29.89,29.80,12,2,12,51.80